sensor_id;sensor_type;location;lat;lon;timestamp;pressure;altitude;pressure_sealevel;temperature;humidity
47636;BME280;33364;50.766;15.338;2023-02-02T00:01:46;94280.47;;;-0.77;80.11
47636;BME280;33364;50.766;15.338;2023-02-02T00:04:20;94276.59;;;-0.81;80.38
47636;BME280;33364;50.766;15.338;2023-02-02T00:06:46;94286.47;;;-0.76;79.91
47636;BME280;33364;50.766;15.338;2023-02-02T00:09:15;94282.44;;;-0.79;80.13
47636;BME280;33364;50.766;15.338;2023-02-02T00:11:41;94274.00;;;-0.81;79.51
47636;BME280;33364;50.766;15.338;2023-02-02T00:14:08;94269.38;;;-0.79;79.87
47636;BME280;33364;50.766;15.338;2023-02-02T00:16:36;94275.81;;;-0.81;79.33
47636;BME280;33364;50.766;15.338;2023-02-02T00:19:05;94270.22;;;-0.78;79.34
47636;BME280;33364;50.766;15.338;2023-02-02T00:21:32;94277.81;;;-0.83;79.20
47636;BME280;33364;50.766;15.338;2023-02-02T00:23:58;94279.03;;;-0.79;79.39
47636;BME280;33364;50.766;15.338;2023-02-02T00:26:23;94270.63;;;-0.75;79.30
47636;BME280;33364;50.766;15.338;2023-02-02T00:28:49;94270.63;;;-0.75;79.60
47636;BME280;33364;50.766;15.338;2023-02-02T00:31:15;94273.84;;;-0.72;79.37
47636;BME280;33364;50.766;15.338;2023-02-02T00:33:45;94279.03;;;-0.79;79.39
47636;BME280;33364;50.766;15.338;2023-02-02T00:36:11;94265.38;;;-0.81;79.21
47636;BME280;33364;50.766;15.338;2023-02-02T00:38:36;94279.59;;;-0.84;78.83
47636;BME280;33364;50.766;15.338;2023-02-02T00:41:03;94275.81;;;-0.81;78.97
47636;BME280;33364;50.766;15.338;2023-02-02T00:43:29;94261.72;;;-0.87;79.37
47636;BME280;33364;50.766;15.338;2023-02-02T00:45:55;94278.03;;;-0.78;79.51
47636;BME280;33364;50.766;15.338;2023-02-02T00:48:21;94276.22;;;-0.78;79.39
47636;BME280;33364;50.766;15.338;2023-02-02T00:50:47;94282.06;;;-0.76;79.27
47636;BME280;33364;50.766;15.338;2023-02-02T00:53:13;94273.44;;;-0.76;79.32
47636;BME280;33364;50.766;15.338;2023-02-02T00:55:38;94268.59;;;-0.79;79.03
47636;BME280;33364;50.766;15.338;2023-02-02T00:58:04;94260.53;;;-0.84;78.92
47636;BME280;33364;50.766;15.338;2023-02-02T01:00:30;94260.78;;;-0.79;78.26
47636;BME280;33364;50.766;15.338;2023-02-02T01:02:56;94256.38;;;-0.72;77.76
47636;BME280;33364;50.766;15.338;2023-02-02T01:05:35;94260.63;;;-0.71;77.84
47636;BME280;33364;50.766;15.338;2023-02-02T01:08:01;94258.75;;;-0.77;78.41
47636;BME280;33364;50.766;15.338;2023-02-02T01:10:27;94258.56;;;-0.76;78.72
47636;BME280;33364;50.766;15.338;2023-02-02T01:12:53;94257.41;;;-0.73;78.37
47636;BME280;33364;50.766;15.338;2023-02-02T01:15:19;94261.00;;;-0.74;78.12
47636;BME280;33364;50.766;15.338;2023-02-02T01:17:44;94265.00;;;-0.78;78.40
47636;BME280;33364;50.766;15.338;2023-02-02T01:20:16;94260.19;;;-0.75;77.89
47636;BME280;33364;50.766;15.338;2023-02-02T01:22:42;94267.41;;;-0.77;78.68
47636;BME280;33364;50.766;15.338;2023-02-02T01:25:08;94263.97;;;-0.77;78.99
47636;BME280;33364;50.766;15.338;2023-02-02T01:27:34;94263.97;;;-0.77;78.77
47636;BME280;33364;50.766;15.338;2023-02-02T01:30:00;94269.84;;;-0.75;78.23
47636;BME280;33364;50.766;15.338;2023-02-02T01:32:25;94276.41;;;-0.79;78.29
47636;BME280;33364;50.766;15.338;2023-02-02T01:34:51;94277.84;;;-0.77;77.78
47636;BME280;33364;50.766;15.338;2023-02-02T01:37:17;94274.72;;;-0.65;77.47
47636;BME280;33364;50.766;15.338;2023-02-02T01:39:43;94276.47;;;-0.72;77.55
47636;BME280;33364;50.766;15.338;2023-02-02T01:42:14;94259.81;;;-0.71;77.25
47636;BME280;33364;50.766;15.338;2023-02-02T01:45:09;94261.00;;;-0.74;77.02
47636;BME280;33364;50.766;15.338;2023-02-02T01:48:07;94274.66;;;-0.72;77.08
47636;BME280;33364;50.766;15.338;2023-02-02T01:50:33;94265.84;;;-0.71;76.91
47636;BME280;33364;50.766;15.338;2023-02-02T01:53:01;94267.03;;;-0.73;77.28
47636;BME280;33364;50.766;15.338;2023-02-02T01:55:29;94268.22;;;-0.76;77.47
47636;BME280;33364;50.766;15.338;2023-02-02T01:58:09;94264.16;;;-0.79;77.73
47636;BME280;33364;50.766;15.338;2023-02-02T02:00:36;94268.59;;;-0.79;77.85
47636;BME280;33364;50.766;15.338;2023-02-02T02:03:11;94260.97;;;-0.81;77.59
47636;BME280;33364;50.766;15.338;2023-02-02T02:05:43;94254.38;;;-0.77;76.93
47636;BME280;33364;50.766;15.338;2023-02-02T02:08:27;94262.75;;;-0.81;77.87
47636;BME280;33364;50.766;15.338;2023-02-02T02:10:54;94257.16;;;-0.78;77.35
47636;BME280;33364;50.766;15.338;2023-02-02T02:13:22;94248.13;;;-0.76;77.18
47636;BME280;33364;50.766;15.338;2023-02-02T02:21:49;94260.16;;;-0.81;77.56
47636;BME280;33364;50.766;15.338;2023-02-02T02:24:46;94261.38;;;-0.77;77.47
47636;BME280;33364;50.766;15.338;2023-02-02T02:30:54;94255.56;;;-0.79;77.44
47636;BME280;33364;50.766;15.338;2023-02-02T02:36:17;94259.41;;;-0.75;77.62
47636;BME280;33364;50.766;15.338;2023-02-02T02:38:49;94265.41;;;-0.75;77.08
47636;BME280;33364;50.766;15.338;2023-02-02T02:41:20;94262.63;;;-0.73;76.66
47636;BME280;33364;50.766;15.338;2023-02-02T02:43:53;94264.16;;;-0.79;76.81
47636;BME280;33364;50.766;15.338;2023-02-02T02:46:21;94261.00;;;-0.74;76.35
47636;BME280;33364;50.766;15.338;2023-02-02T02:48:47;94271.63;;;-0.76;75.87
47636;BME280;33364;50.766;15.338;2023-02-02T02:51:44;94262.38;;;-0.78;76.37
47636;BME280;33364;50.766;15.338;2023-02-02T02:54:37;94272.63;;;-0.77;75.97
47636;BME280;33364;50.766;15.338;2023-02-02T03:07:36;94261.19;;;-0.76;75.77
47636;BME280;33364;50.766;15.338;2023-02-02T03:10:06;94261.00;;;-0.74;76.07
47636;BME280;33364;50.766;15.338;2023-02-02T03:12:42;94254.19;;;-0.75;76.20
47636;BME280;33364;50.766;15.338;2023-02-02T03:15:09;94272.81;;;-0.78;76.70
47636;BME280;33364;50.766;15.338;2023-02-02T03:17:35;94272.63;;;-0.77;76.94
47636;BME280;33364;50.766;15.338;2023-02-02T03:20:00;94253.34;;;-0.76;77.17
47636;BME280;33364;50.766;15.338;2023-02-02T03:22:26;94270.66;;;-0.68;77.54
47636;BME280;33364;50.766;15.338;2023-02-02T03:24:52;94257.97;;;-0.78;78.16
47636;BME280;33364;50.766;15.338;2023-02-02T03:27:18;94260.97;;;-0.81;78.75
47636;BME280;33364;50.766;15.338;2023-02-02T03:29:43;94268.97;;;-0.82;78.56
47636;BME280;33364;50.766;15.338;2023-02-02T03:32:10;94266.59;;;-0.77;79.01
47636;BME280;33364;50.766;15.338;2023-02-02T03:34:35;94254.56;;;-0.78;79.57
47636;BME280;33364;50.766;15.338;2023-02-02T03:37:01;94257.31;;;-0.86;79.49
47636;BME280;33364;50.766;15.338;2023-02-02T03:39:27;94263.72;;;-0.89;79.79
47636;BME280;33364;50.766;15.338;2023-02-02T03:41:53;94252.53;;;-0.83;79.65
47636;BME280;33364;50.766;15.338;2023-02-02T03:44:18;94259.97;;;-0.80;78.86
47636;BME280;33364;50.766;15.338;2023-02-02T03:46:44;94258.94;;;-0.79;79.26
47636;BME280;33364;50.766;15.338;2023-02-02T03:49:10;94261.75;;;-0.80;79.95
47636;BME280;33364;50.766;15.338;2023-02-02T03:51:35;94259.97;;;-0.80;79.63
47636;BME280;33364;50.766;15.338;2023-02-02T03:54:01;94254.34;;;-0.83;79.52
47636;BME280;33364;50.766;15.338;2023-02-02T03:56:27;94249.75;;;-0.75;79.55
47636;BME280;33364;50.766;15.338;2023-02-02T03:58:53;94259.41;;;-0.75;79.40
47636;BME280;33364;50.766;15.338;2023-02-02T04:01:28;94248.72;;;-0.80;79.57
47636;BME280;33364;50.766;15.338;2023-02-02T04:03:55;94261.38;;;-0.77;78.59
47636;BME280;33364;50.766;15.338;2023-02-02T04:06:22;94250.19;;;-0.71;79.09
47636;BME280;33364;50.766;15.338;2023-02-02T04:08:48;94253.16;;;-0.74;79.06
47636;BME280;33364;50.766;15.338;2023-02-02T04:11:15;94254.78;;;-0.73;78.99
47636;BME280;33364;50.766;15.338;2023-02-02T04:13:41;94261.59;;;-0.72;79.05
47636;BME280;33364;50.766;15.338;2023-02-02T04:16:09;94265.88;;;-0.64;78.22
47636;BME280;33364;50.766;15.338;2023-02-02T04:18:35;94259.84;;;-0.65;77.84
47636;BME280;33364;50.766;15.338;2023-02-02T04:21:05;94253.59;;;-0.70;78.52
47636;BME280;33364;50.766;15.338;2023-02-02T04:23:32;94263.63;;;-0.67;78.37
47636;BME280;33364;50.766;15.338;2023-02-02T04:25:58;94261.66;;;-0.65;77.97
47636;BME280;33364;50.766;15.338;2023-02-02T04:28:25;94252.63;;;-0.63;77.72
47636;BME280;33364;50.766;15.338;2023-02-02T04:30:52;94265.91;;;-0.58;76.82
47636;BME280;33364;50.766;15.338;2023-02-02T04:33:19;94274.53;;;-0.64;77.65
47636;BME280;33364;50.766;15.338;2023-02-02T04:35:45;94269.69;;;-0.67;77.33
47636;BME280;33364;50.766;15.338;2023-02-02T04:38:11;94275.50;;;-0.65;77.66
47636;BME280;33364;50.766;15.338;2023-02-02T04:40:38;94273.75;;;-0.58;77.38
47636;BME280;33364;50.766;15.338;2023-02-02T04:43:04;94273.31;;;-0.61;77.45
47636;BME280;33364;50.766;15.338;2023-02-02T04:45:30;94268.66;;;-0.66;77.30
47636;BME280;33364;50.766;15.338;2023-02-02T04:47:56;94267.06;;;-0.67;77.60
47636;BME280;33364;50.766;15.338;2023-02-02T04:50:22;94266.94;;;-0.59;77.42
47636;BME280;33364;50.766;15.338;2023-02-02T04:52:47;94280.19;;;-0.53;77.31
47636;BME280;33364;50.766;15.338;2023-02-02T04:55:13;94267.34;;;-0.55;77.59
47636;BME280;33364;50.766;15.338;2023-02-02T04:57:39;94264.31;;;-0.59;78.19
47636;BME280;33364;50.766;15.338;2023-02-02T05:00:05;94268.09;;;-0.61;78.11
47636;BME280;33364;50.766;15.338;2023-02-02T05:02:34;94260.63;;;-0.71;78.39
47636;BME280;33364;50.766;15.338;2023-02-02T05:05:01;94271.47;;;-0.67;78.96
47636;BME280;33364;50.766;15.338;2023-02-02T05:07:26;94266.44;;;-0.69;78.72
47636;BME280;33364;50.766;15.338;2023-02-02T05:09:52;94278.13;;;-0.65;79.14
47636;BME280;33364;50.766;15.338;2023-02-02T05:12:18;94285.94;;;-0.65;78.90
47636;BME280;33364;50.766;15.338;2023-02-02T05:14:44;94275.88;;;-0.68;79.92
47636;BME280;33364;50.766;15.338;2023-02-02T05:17:10;94280.88;;;-0.73;79.74
47636;BME280;33364;50.766;15.338;2023-02-02T05:19:35;94289.13;;;-0.69;80.02
47636;BME280;33364;50.766;15.338;2023-02-02T05:22:01;94286.94;;;-0.66;79.47
47636;BME280;33364;50.766;15.338;2023-02-02T05:24:27;94291.16;;;-0.65;79.54
47636;BME280;33364;50.766;15.338;2023-02-02T05:26:53;94299.97;;;-0.66;79.81
47636;BME280;33364;50.766;15.338;2023-02-02T05:29:23;94303.59;;;-0.67;80.29
47636;BME280;33364;50.766;15.338;2023-02-02T05:31:49;94297.38;;;-0.66;79.78
47636;BME280;33364;50.766;15.338;2023-02-02T05:34:15;94309.38;;;-0.71;79.90
47636;BME280;33364;50.766;15.338;2023-02-02T05:36:40;94313.22;;;-0.67;80.11
47636;BME280;33364;50.766;15.338;2023-02-02T05:39:08;94326.44;;;-0.69;79.92
47636;BME280;33364;50.766;15.338;2023-02-02T05:41:34;94324.72;;;-0.62;79.90
47636;BME280;33364;50.766;15.338;2023-02-02T05:44:01;94334.91;;;-0.67;80.58
47636;BME280;33364;50.766;15.338;2023-02-02T05:46:27;94342.09;;;-0.69;80.80
47636;BME280;33364;50.766;15.338;2023-02-02T05:48:52;94331.66;;;-0.69;80.28
47636;BME280;33364;50.766;15.338;2023-02-02T05:51:25;94345.94;;;-0.65;80.20
47636;BME280;33364;50.766;15.338;2023-02-02T05:53:52;94352.56;;;-0.62;79.19
47636;BME280;33364;50.766;15.338;2023-02-02T05:56:17;94345.81;;;-0.57;79.72
47636;BME280;33364;50.766;15.338;2023-02-02T05:58:43;94359.47;;;-0.54;79.69
47636;BME280;33364;50.766;15.338;2023-02-02T06:01:12;94346.59;;;-0.56;79.08
47636;BME280;33364;50.766;15.338;2023-02-02T06:03:38;94362.06;;;-0.54;79.59
47636;BME280;33364;50.766;15.338;2023-02-02T06:06:04;94371.28;;;-0.59;79.30
47636;BME280;33364;50.766;15.338;2023-02-02T06:08:30;94364.44;;;-0.60;80.04
47636;BME280;33364;50.766;15.338;2023-02-02T06:10:56;94371.63;;;-0.68;80.57
47636;BME280;33364;50.766;15.338;2023-02-02T06:13:22;94377.81;;;-0.69;80.01
47636;BME280;33364;50.766;15.338;2023-02-02T06:15:47;94384.16;;;-0.57;79.58
47636;BME280;33364;50.766;15.338;2023-02-02T06:18:13;94387.13;;;-0.60;79.81
47636;BME280;33364;50.766;15.338;2023-02-02T06:20:39;94393.16;;;-0.60;79.88
47636;BME280;33364;50.766;15.338;2023-02-02T06:23:05;94404.38;;;-0.59;79.70
47636;BME280;33364;50.766;15.338;2023-02-02T06:25:31;94392.97;;;-0.58;79.51
47636;BME280;33364;50.766;15.338;2023-02-02T06:27:58;94393.91;;;-0.66;79.95
47636;BME280;33364;50.766;15.338;2023-02-02T06:30:24;94393.81;;;-0.51;79.00
47636;BME280;33364;50.766;15.338;2023-02-02T06:32:50;94398.00;;;-0.57;78.81
47636;BME280;33364;50.766;15.338;2023-02-02T06:35:15;94403.03;;;-0.55;79.63
47636;BME280;33364;50.766;15.338;2023-02-02T06:37:41;94398.75;;;-0.63;79.13
47636;BME280;33364;50.766;15.338;2023-02-02T06:40:08;94404.34;;;-0.66;79.45
47636;BME280;33364;50.766;15.338;2023-02-02T06:42:34;94397.81;;;-0.55;78.63
47636;BME280;33364;50.766;15.338;2023-02-02T06:45:01;94400.66;;;-0.50;78.57
47636;BME280;33364;50.766;15.338;2023-02-02T06:47:27;94411.28;;;-0.51;78.60
47636;BME280;33364;50.766;15.338;2023-02-02T06:49:52;94406.81;;;-0.58;78.84
47636;BME280;33364;50.766;15.338;2023-02-02T06:52:19;94419.47;;;-0.54;78.96
47636;BME280;33364;50.766;15.338;2023-02-02T06:54:44;94415.69;;;-0.52;78.97
47636;BME280;33364;50.766;15.338;2023-02-02T06:57:10;94422.09;;;-0.54;79.41
47636;BME280;33364;50.766;15.338;2023-02-02T06:59:36;94419.84;;;-0.58;79.46
47636;BME280;33364;50.766;15.338;2023-02-02T07:02:02;94423.66;;;-0.60;79.66
47636;BME280;33364;50.766;15.338;2023-02-02T07:04:28;94429.63;;;-0.66;79.45
47636;BME280;33364;50.766;15.338;2023-02-02T07:06:54;94436.06;;;-0.62;79.23
47636;BME280;33364;50.766;15.338;2023-02-02T07:09:20;94433.09;;;-0.59;79.38
47636;BME280;33364;50.766;15.338;2023-02-02T07:11:45;94437.75;;;-0.54;79.02
47636;BME280;33364;50.766;15.338;2023-02-02T07:14:11;94442.16;;;-0.55;79.18
47636;BME280;33364;50.766;15.338;2023-02-02T07:16:37;94450.19;;;-0.57;79.63
47636;BME280;33364;50.766;15.338;2023-02-02T07:19:03;94438.75;;;-0.56;79.50
47636;BME280;33364;50.766;15.338;2023-02-02T07:21:29;94456.63;;;-0.52;79.76
47636;BME280;33364;50.766;15.338;2023-02-02T07:24:01;94453.59;;;-0.56;79.91
47636;BME280;33364;50.766;15.338;2023-02-02T07:26:27;94465.03;;;-0.57;79.59
47636;BME280;33364;50.766;15.338;2023-02-02T07:28:53;94452.59;;;-0.55;79.39
47636;BME280;33364;50.766;15.338;2023-02-02T07:31:24;94477.31;;;-0.51;79.60
47636;BME280;33364;50.766;15.338;2023-02-02T07:33:51;94471.91;;;-0.49;79.35
47636;BME280;33364;50.766;15.338;2023-02-02T07:36:19;94475.16;;;-0.47;79.19
47636;BME280;33364;50.766;15.338;2023-02-02T07:38:46;94480.75;;;-0.50;79.13
47636;BME280;33364;50.766;15.338;2023-02-02T07:41:14;94470.81;;;-0.40;78.44
47636;BME280;33364;50.766;15.338;2023-02-02T07:43:40;94480.44;;;-0.41;79.12
47636;BME280;33364;50.766;15.338;2023-02-02T07:46:07;94477.66;;;-0.39;79.28
47636;BME280;33364;50.766;15.338;2023-02-02T07:48:35;94493.13;;;-0.38;78.98
47636;BME280;33364;50.766;15.338;2023-02-02T07:51:04;94488.28;;;-0.41;78.71
47636;BME280;33364;50.766;15.338;2023-02-02T07:53:30;94506.47;;;-0.26;78.76
47636;BME280;33364;50.766;15.338;2023-02-02T07:56:11;94483.78;;;-0.25;78.81
47636;BME280;33364;50.766;15.338;2023-02-02T07:58:37;94493.28;;;-0.17;78.93
47636;BME280;33364;50.766;15.338;2023-02-02T08:01:05;94486.19;;;-0.24;78.61
47636;BME280;33364;50.766;15.338;2023-02-02T08:03:31;94494.81;;;-0.23;78.37
47636;BME280;33364;50.766;15.338;2023-02-02T08:05:58;94505.97;;;-0.14;78.43
47636;BME280;33364;50.766;15.338;2023-02-02T08:08:24;94523.13;;;-0.27;79.24
47636;BME280;33364;50.766;15.338;2023-02-02T08:10:52;94516.16;;;-0.20;79.56
47636;BME280;33364;50.766;15.338;2023-02-02T08:13:19;94525.22;;;-0.15;79.27
47636;BME280;33364;50.766;15.338;2023-02-02T08:15:45;94518.38;;;-0.16;77.57
47636;BME280;33364;50.766;15.338;2023-02-02T08:18:10;94505.59;;;-0.11;77.52
47636;BME280;33364;50.766;15.338;2023-02-02T08:20:36;94514.78;;;0.13;76.37
47636;BME280;33364;50.766;15.338;2023-02-02T08:23:02;94516.22;;;0.15;76.99
47636;BME280;33364;50.766;15.338;2023-02-02T08:25:28;94531.44;;;0.05;77.42
47636;BME280;33364;50.766;15.338;2023-02-02T08:27:55;94530.50;;;-0.09;78.92
47636;BME280;33364;50.766;15.338;2023-02-02T08:30:24;94529.72;;;0.19;78.14
47636;BME280;33364;50.766;15.338;2023-02-02T08:32:49;94529.09;;;0.17;77.65
47636;BME280;33364;50.766;15.338;2023-02-02T08:35:15;94551.97;;;0.08;77.59
47636;BME280;33364;50.766;15.338;2023-02-02T08:37:46;94544.16;;;0.15;77.46
47636;BME280;33364;50.766;15.338;2023-02-02T08:40:12;94544.22;;;0.22;77.40
47636;BME280;33364;50.766;15.338;2023-02-02T08:42:38;94548.41;;;0.23;76.87
47636;BME280;33364;50.766;15.338;2023-02-02T08:45:05;94550.03;;;0.24;76.91
47636;BME280;33364;50.766;15.338;2023-02-02T08:47:31;94548.03;;;0.26;76.19
47636;BME280;33364;50.766;15.338;2023-02-02T08:49:56;94550.25;;;0.22;76.47
47636;BME280;33364;50.766;15.338;2023-02-02T08:52:22;94558.13;;;0.29;76.48
47636;BME280;33364;50.766;15.338;2023-02-02T08:54:48;94570.75;;;0.53;75.57
47636;BME280;33364;50.766;15.338;2023-02-02T08:57:14;94580.44;;;0.60;74.43
47636;BME280;33364;50.766;15.338;2023-02-02T08:59:40;94591.91;;;0.59;73.35
47636;BME280;33364;50.766;15.338;2023-02-02T09:02:05;94589.38;;;0.44;74.17
47636;BME280;33364;50.766;15.338;2023-02-02T09:04:31;94593.47;;;0.25;74.75
47636;BME280;33364;50.766;15.338;2023-02-02T09:06:57;94593.81;;;0.15;75.56
47636;BME280;33364;50.766;15.338;2023-02-02T09:09:23;94588.63;;;0.22;75.46
47636;BME280;33364;50.766;15.338;2023-02-02T09:11:49;94587.38;;;0.17;76.42
47636;BME280;33364;50.766;15.338;2023-02-02T09:14:15;94588.94;;;0.12;76.57
47636;BME280;33364;50.766;15.338;2023-02-02T09:16:41;94590.06;;;0.03;76.48
47636;BME280;33364;50.766;15.338;2023-02-02T09:19:09;94597.28;;;0.01;77.29
47636;BME280;33364;50.766;15.338;2023-02-02T09:21:35;94614.66;;;0.08;77.11
47636;BME280;33364;50.766;15.338;2023-02-02T09:24:07;94612.38;;;0.27;76.17
47636;BME280;33364;50.766;15.338;2023-02-02T09:26:33;94613.06;;;0.14;76.02
47636;BME280;33364;50.766;15.338;2023-02-02T09:29:04;94612.28;;;0.13;76.55
47636;BME280;33364;50.766;15.338;2023-02-02T09:31:32;94621.16;;;0.19;76.33
47636;BME280;33364;50.766;15.338;2023-02-02T09:34:03;94617.97;;;0.24;76.50
47636;BME280;33364;50.766;15.338;2023-02-02T09:36:29;94636.38;;;0.37;75.52
47636;BME280;33364;50.766;15.338;2023-02-02T09:38:55;94620.88;;;0.35;75.46
47636;BME280;33364;50.766;15.338;2023-02-02T09:44:38;94634.66;;;0.44;75.96
47636;BME280;33364;50.766;15.338;2023-02-02T09:47:16;94618.13;;;0.44;76.44
47636;BME280;33364;50.766;15.338;2023-02-02T09:55:24;94645.53;;;0.76;75.26
47636;BME280;33364;50.766;15.338;2023-02-02T10:03:30;94641.44;;;0.95;73.18
47636;BME280;33364;50.766;15.338;2023-02-02T10:09:30;94651.13;;;0.73;73.01
47636;BME280;33364;50.766;15.338;2023-02-02T10:12:25;94639.91;;;0.79;73.23
47636;BME280;33364;50.766;15.338;2023-02-02T10:17:53;94667.38;;;0.90;74.39
47636;BME280;33364;50.766;15.338;2023-02-02T10:20:30;94657.50;;;0.92;74.08
47636;BME280;33364;50.766;15.338;2023-02-02T10:23:05;94670.56;;;1.20;71.73
47636;BME280;33364;50.766;15.338;2023-02-02T10:25:36;94668.72;;;1.56;69.92
47636;BME280;33364;50.766;15.338;2023-02-02T10:28:18;94673.56;;;1.59;69.38
47636;BME280;33364;50.766;15.338;2023-02-02T10:30:54;94672.00;;;1.71;69.80
47636;BME280;33364;50.766;15.338;2023-02-02T10:33:35;94670.03;;;1.80;68.17
47636;BME280;33364;50.766;15.338;2023-02-02T10:36:26;94666.38;;;1.74;67.30
47636;BME280;33364;50.766;15.338;2023-02-02T10:39:09;94666.03;;;1.97;68.04
47636;BME280;33364;50.766;15.338;2023-02-02T10:44:36;94675.16;;;2.22;66.65
47636;BME280;33364;50.766;15.338;2023-02-02T10:47:05;94673.53;;;2.20;65.50
47636;BME280;33364;50.766;15.338;2023-02-02T10:49:39;94673.66;;;1.79;67.16
47636;BME280;33364;50.766;15.338;2023-02-02T10:52:21;94669.00;;;1.74;67.78
47636;BME280;33364;50.766;15.338;2023-02-02T10:54:55;94669.97;;;1.67;67.47
47636;BME280;33364;50.766;15.338;2023-02-02T11:03:11;94664.03;;;1.99;66.99
47636;BME280;33364;50.766;15.338;2023-02-02T11:05:38;94666.88;;;2.11;67.40
47636;BME280;33364;50.766;15.338;2023-02-02T11:11:20;94674.97;;;2.30;65.89
47636;BME280;33364;50.766;15.338;2023-02-02T11:13:48;94670.25;;;1.92;67.09
47636;BME280;33364;50.766;15.338;2023-02-02T11:18:43;94667.28;;;2.08;67.57
47636;BME280;33364;50.766;15.338;2023-02-02T11:21:32;94673.53;;;2.14;66.34
47636;BME280;33364;50.766;15.338;2023-02-02T11:24:14;94667.50;;;2.20;64.70
47636;BME280;33364;50.766;15.338;2023-02-02T11:29:28;94679.44;;;2.49;64.47
47636;BME280;33364;50.766;15.338;2023-02-02T11:31:56;94689.69;;;2.24;65.47
47636;BME280;33364;50.766;15.338;2023-02-02T11:34:25;94678.97;;;2.19;65.55
47636;BME280;33364;50.766;15.338;2023-02-02T11:37:13;94680.25;;;2.50;65.52
47636;BME280;33364;50.766;15.338;2023-02-02T11:39:40;94687.13;;;2.64;64.48
47636;BME280;33364;50.766;15.338;2023-02-02T11:42:17;94676.22;;;2.34;64.69
47636;BME280;33364;50.766;15.338;2023-02-02T11:44:49;94679.81;;;2.26;65.61
47636;BME280;33364;50.766;15.338;2023-02-02T11:47:24;94671.28;;;2.04;65.50
47636;BME280;33364;50.766;15.338;2023-02-02T11:49:52;94668.91;;;2.16;65.25
47636;BME280;33364;50.766;15.338;2023-02-02T11:52:23;94676.34;;;2.06;66.24
47636;BME280;33364;50.766;15.338;2023-02-02T11:54:52;94664.28;;;2.18;66.55
47636;BME280;33364;50.766;15.338;2023-02-02T11:57:21;94666.69;;;2.13;66.60
47636;BME280;33364;50.766;15.338;2023-02-02T11:59:50;94670.59;;;1.69;67.76
47636;BME280;33364;50.766;15.338;2023-02-02T12:07:35;94678.06;;;1.72;68.69
47636;BME280;33364;50.766;15.338;2023-02-02T12:10:25;94666.72;;;1.58;68.47
47636;BME280;33364;50.766;15.338;2023-02-02T12:13:03;94679.56;;;1.46;68.91
47636;BME280;33364;50.766;15.338;2023-02-02T12:15:56;94685.56;;;1.88;68.81
47636;BME280;33364;50.766;15.338;2023-02-02T12:26:30;94702.63;;;2.26;66.01
47636;BME280;33364;50.766;15.338;2023-02-02T12:41:37;94690.13;;;1.73;70.86
47636;BME280;33364;50.766;15.338;2023-02-02T12:52:17;94705.63;;;1.68;69.89
47636;BME280;33364;50.766;15.338;2023-02-02T12:57:55;94684.16;;;1.86;68.37
47636;BME280;33364;50.766;15.338;2023-02-02T13:03:25;94697.59;;;2.91;66.23
47636;BME280;33364;50.766;15.338;2023-02-02T13:11:10;94704.09;;;2.88;62.96
47636;BME280;33364;50.766;15.338;2023-02-02T13:14:16;94700.78;;;2.26;65.95
47636;BME280;33364;50.766;15.338;2023-02-02T13:16:50;94696.66;;;1.90;65.85
47636;BME280;33364;50.766;15.338;2023-02-02T13:19:28;94715.03;;;1.55;66.80
47636;BME280;33364;50.766;15.338;2023-02-02T13:21:57;94713.94;;;1.36;67.45
47636;BME280;33364;50.766;15.338;2023-02-02T13:24:30;94712.88;;;1.65;67.01
47636;BME280;33364;50.766;15.338;2023-02-02T13:27:00;94718.91;;;2.08;67.08
47636;BME280;33364;50.766;15.338;2023-02-02T13:29:38;94709.94;;;1.89;66.64
47636;BME280;33364;50.766;15.338;2023-02-02T13:32:16;94732.25;;;1.78;68.54
47636;BME280;33364;50.766;15.338;2023-02-02T13:34:58;94724.22;;;1.79;68.47
47636;BME280;33364;50.766;15.338;2023-02-02T13:46:04;94744.22;;;2.62;67.37
47636;BME280;33364;50.766;15.338;2023-02-02T13:48:46;94744.78;;;2.44;66.96
47636;BME280;33364;50.766;15.338;2023-02-02T14:00:49;94758.59;;;1.63;69.77
47636;BME280;33364;50.766;15.338;2023-02-02T14:03:26;94762.31;;;1.47;70.88
47636;BME280;33364;50.766;15.338;2023-02-02T14:06:20;94771.31;;;1.09;73.04
47636;BME280;33364;50.766;15.338;2023-02-02T14:11:25;94789.72;;;0.73;74.98
47636;BME280;33364;50.766;15.338;2023-02-02T14:13:55;94797.69;;;0.65;76.33
47636;BME280;33364;50.766;15.338;2023-02-02T14:16:44;94802.50;;;0.61;77.23
47636;BME280;33364;50.766;15.338;2023-02-02T14:19:45;94792.78;;;0.55;77.60
47636;BME280;33364;50.766;15.338;2023-02-02T14:24:49;94793.75;;;0.32;77.87
47636;BME280;33364;50.766;15.338;2023-02-02T14:37:57;94837.59;;;0.01;80.03
47636;BME280;33364;50.766;15.338;2023-02-02T14:43:10;94854.06;;;0.16;79.96
47636;BME280;33364;50.766;15.338;2023-02-02T14:48:31;94862.97;;;0.36;76.87
47636;BME280;33364;50.766;15.338;2023-02-02T14:51:00;94881.06;;;0.38;75.70
47636;BME280;33364;50.766;15.338;2023-02-02T14:53:31;94883.25;;;0.34;76.24
47636;BME280;33364;50.766;15.338;2023-02-02T14:56:07;94871.53;;;0.30;75.16
47636;BME280;33364;50.766;15.338;2023-02-02T15:01:22;94896.22;;;0.13;75.30
47636;BME280;33364;50.766;15.338;2023-02-02T15:06:48;94896.88;;;0.00;74.69
47636;BME280;33364;50.766;15.338;2023-02-02T15:28:17;94927.28;;;-0.22;74.46
47636;BME280;33364;50.766;15.338;2023-02-02T15:30:51;94948.69;;;-0.27;74.94
47636;BME280;33364;50.766;15.338;2023-02-02T15:35:46;94947.84;;;-0.42;75.96
47636;BME280;33364;50.766;15.338;2023-02-02T15:38:15;94938.03;;;-0.40;75.28
47636;BME280;33364;50.766;15.338;2023-02-02T15:40:42;94952.72;;;-0.39;76.38
47636;BME280;33364;50.766;15.338;2023-02-02T15:43:09;94965.00;;;-0.48;76.75
47636;BME280;33364;50.766;15.338;2023-02-02T15:45:54;94968.47;;;-0.47;76.24
47636;BME280;33364;50.766;15.338;2023-02-02T15:48:30;94978.84;;;-0.39;75.34
47636;BME280;33364;50.766;15.338;2023-02-02T15:51:02;94971.34;;;-0.42;75.91
47636;BME280;33364;50.766;15.338;2023-02-02T15:58:50;94977.81;;;-0.38;76.42
47636;BME280;33364;50.766;15.338;2023-02-02T16:01:18;94984.06;;;-0.39;76.97
47636;BME280;33364;50.766;15.338;2023-02-02T16:06:18;94998.44;;;-0.43;77.63